createdAt,value
2018-07-09T00:03:01.506Z,2.80
2018-07-09T00:06:06.005Z,2.17
2018-07-09T00:09:10.358Z,2.37
2018-07-09T00:12:14.705Z,2.43
2018-07-09T00:15:19.031Z,2.37
2018-07-09T00:18:23.344Z,2.20
2018-07-09T00:21:28.609Z,1.90
2018-07-09T00:24:33.533Z,2.10
2018-07-09T00:27:37.832Z,2.00
2018-07-09T00:30:42.241Z,1.80
2018-07-09T00:33:46.626Z,2.17
2018-07-09T00:36:50.977Z,2.03
2018-07-09T00:39:55.272Z,2.53
2018-07-09T00:42:59.613Z,2.47
2018-07-09T00:46:04.805Z,2.50
2018-07-09T00:49:09.494Z,2.47
2018-07-09T00:52:13.835Z,2.33
2018-07-09T00:55:18.413Z,1.87
2018-07-09T00:58:23.188Z,1.80
2018-07-09T01:01:27.905Z,2.10
2018-07-09T01:04:32.230Z,2.17
2018-07-09T01:07:37.945Z,2.35
2018-07-09T01:10:53.349Z,2.03
2018-07-09T01:13:57.713Z,1.93
2018-07-09T01:17:02.013Z,2.17
2018-07-09T01:20:06.454Z,2.20
2018-07-09T01:23:11.198Z,1.90
2018-07-09T01:26:15.722Z,2.70
2018-07-09T01:29:20.182Z,2.13
2018-07-09T01:32:24.657Z,2.30
2018-07-09T01:35:29.389Z,2.13
2018-07-09T01:38:33.734Z,2.07
2018-07-09T01:41:38.065Z,1.97
2018-07-09T01:44:42.452Z,1.73
2018-07-09T01:47:46.951Z,2.17
2018-07-09T01:50:51.298Z,2.30
2018-07-09T01:53:55.618Z,1.90
2018-07-09T01:57:00.149Z,2.37
2018-07-09T02:00:05.078Z,2.20
2018-07-09T02:03:09.598Z,2.27
2018-07-09T02:06:13.886Z,2.03
2018-07-09T02:09:17.940Z,2.40
2018-07-09T02:12:22.202Z,2.10
2018-07-09T02:15:26.582Z,2.60
2018-07-09T02:18:31.052Z,2.00
2018-07-09T02:21:35.320Z,1.87
2018-07-09T02:24:39.668Z,2.30
2018-07-09T02:27:43.945Z,2.07
2018-07-09T02:30:48.555Z,2.03
2018-07-09T02:33:52.893Z,2.30
2018-07-09T02:36:57.165Z,2.50
2018-07-09T02:40:01.417Z,2.10
2018-07-09T02:43:05.837Z,1.90
2018-07-09T02:46:10.754Z,2.27
2018-07-09T02:49:15.065Z,2.40
2018-07-09T02:52:19.529Z,2.60
2018-07-09T02:55:23.899Z,2.20
2018-07-09T02:58:28.200Z,2.57
2018-07-09T03:01:33.142Z,2.57
2018-07-09T03:04:37.549Z,2.23
2018-07-09T03:07:41.798Z,2.17
2018-07-09T03:10:46.147Z,2.40
2018-07-09T03:13:50.437Z,2.67
2018-07-09T03:16:54.697Z,2.90
2018-07-09T03:19:59.055Z,2.70
2018-07-09T03:23:03.341Z,2.57
2018-07-09T03:26:08.239Z,2.67
2018-07-09T03:29:12.560Z,3.30
2018-07-09T03:32:16.833Z,2.50
2018-07-09T03:35:20.953Z,2.53
2018-07-09T03:38:25.287Z,2.73
2018-07-09T03:41:30.645Z,2.53
2018-07-09T03:44:34.891Z,2.70
2018-07-09T03:47:39.296Z,2.80
2018-07-09T03:50:43.637Z,2.93
2018-07-09T03:53:48.012Z,2.50
2018-07-09T03:56:52.290Z,3.25
2018-07-09T03:59:56.586Z,2.70
2018-07-09T04:03:01.053Z,2.73
2018-07-09T04:06:05.394Z,2.80
2018-07-09T04:09:09.709Z,3.10
2018-07-09T04:12:14.225Z,2.60
2018-07-09T04:15:18.585Z,2.63
2018-07-09T04:18:24.394Z,2.73
2018-07-09T04:24:38.269Z,2.77
2018-07-09T04:27:42.963Z,3.30
2018-07-09T04:30:47.762Z,2.67
2018-07-09T04:33:52.109Z,2.40
2018-07-09T04:36:57.056Z,3.40
2018-07-09T04:40:01.374Z,2.70
2018-07-09T04:43:05.789Z,2.77
2018-07-09T04:46:10.090Z,2.33
2018-07-09T04:49:31.206Z,2.23
2018-07-09T04:52:35.585Z,2.83
2018-07-09T04:55:40.007Z,3.13
2018-07-09T04:58:44.297Z,3.03
2018-07-09T05:01:49.342Z,3.57
2018-07-09T05:04:55.569Z,3.00
2018-07-09T05:07:59.620Z,3.40
2018-07-09T05:11:03.898Z,3.10
2018-07-09T05:14:08.490Z,3.00
2018-07-09T05:17:12.946Z,2.93
2018-07-09T05:20:17.252Z,2.97
2018-07-09T05:23:21.764Z,3.53
2018-07-09T05:26:26.142Z,3.30
2018-07-09T05:29:30.448Z,4.13
2018-07-09T05:32:34.738Z,3.63
2018-07-09T05:35:39.012Z,4.07
2018-07-09T05:38:44.239Z,3.43
2018-07-09T05:41:48.507Z,3.30
2018-07-09T05:44:52.954Z,3.33
2018-07-09T05:47:57.275Z,2.83
2018-07-09T05:51:02.067Z,3.17
2018-07-09T05:54:06.411Z,2.83
2018-07-09T05:57:10.689Z,2.73
2018-07-09T06:00:14.954Z,3.27
2018-07-09T06:03:19.309Z,3.00
2018-07-09T06:06:23.601Z,2.60
2018-07-09T06:09:27.859Z,3.60
2018-07-09T06:12:32.593Z,3.00
2018-07-09T06:15:36.865Z,3.00
2018-07-09T06:18:41.200Z,2.90
2018-07-09T06:21:55.015Z,3.47
2018-07-09T06:25:00.324Z,3.03
2018-07-09T06:28:04.685Z,3.13
2018-07-09T06:31:09.270Z,3.30
2018-07-09T06:34:13.542Z,3.60
2018-07-09T06:37:18.383Z,3.22
2018-07-09T06:40:22.706Z,2.70
2018-07-09T06:43:27.076Z,3.05
2018-07-09T06:46:31.312Z,2.63
2018-07-09T06:49:35.766Z,2.23
2018-07-09T06:52:40.145Z,2.43
2018-07-09T06:55:45.072Z,2.13
2018-07-09T06:58:49.439Z,2.53
2018-07-09T07:01:53.809Z,2.50
2018-07-09T07:04:58.156Z,2.60
2018-07-09T07:08:03.423Z,2.70
2018-07-09T07:11:08.353Z,2.93
2018-07-09T07:14:12.855Z,2.27
2018-07-09T07:17:17.381Z,2.47
2018-07-09T07:20:22.012Z,2.13
2018-07-09T07:23:26.315Z,2.53
2018-07-09T07:26:31.271Z,2.30
2018-07-09T07:29:36.137Z,2.27
2018-07-09T07:32:40.545Z,2.03
2018-07-09T07:35:44.974Z,2.10
2018-07-09T07:38:49.323Z,3.37
2018-07-09T07:41:53.661Z,2.43
2018-07-09T07:44:58.001Z,2.53
2018-07-09T07:48:02.320Z,2.40
2018-07-09T07:51:07.011Z,2.20
2018-07-09T07:54:12.386Z,2.27
2018-07-09T07:57:16.792Z,2.60
2018-07-09T08:00:21.176Z,2.70
2018-07-09T08:03:25.537Z,2.20
2018-07-09T08:06:30.145Z,2.07
2018-07-09T08:09:34.602Z,2.33
2018-07-09T08:15:43.104Z,2.23
2018-07-09T08:18:48.019Z,2.37
2018-07-09T08:21:53.429Z,2.23
2018-07-09T08:24:56.845Z,2.40
2018-07-09T08:28:01.357Z,2.60
2018-07-09T08:31:05.823Z,2.43
2018-07-09T08:34:10.068Z,2.80
2018-07-09T08:37:14.346Z,2.40
2018-07-09T08:40:19.421Z,2.47
2018-07-09T08:43:24.983Z,3.10
2018-07-09T08:46:29.318Z,2.70
2018-07-09T08:49:33.710Z,2.70
2018-07-09T08:52:37.977Z,2.27
2018-07-09T08:55:42.408Z,2.73
2018-07-09T08:58:46.679Z,2.67
2018-07-09T09:01:51.132Z,2.30
2018-07-09T09:04:55.753Z,2.80
2018-07-09T09:08:00.014Z,2.30
2018-07-09T09:11:05.168Z,2.43
2018-07-09T09:14:09.460Z,2.20
2018-07-09T09:17:13.784Z,2.47
2018-07-09T09:20:18.065Z,2.77
2018-07-09T09:23:22.653Z,2.27
2018-07-09T09:26:26.931Z,2.30
2018-07-09T09:29:31.202Z,2.93
2018-07-09T09:32:35.463Z,2.50
2018-07-09T09:35:39.877Z,2.13
2018-07-09T09:38:44.932Z,2.10
2018-07-09T09:41:49.252Z,2.90
2018-07-09T09:44:54.146Z,2.23
2018-07-09T09:47:58.506Z,2.10
2018-07-09T09:51:02.863Z,1.93
2018-07-09T09:54:07.501Z,2.20
2018-07-09T09:57:11.761Z,2.43
2018-07-09T10:00:16.984Z,2.33
2018-07-09T10:03:21.289Z,2.10
2018-07-09T10:06:25.893Z,2.60
2018-07-09T10:09:30.506Z,2.37
2018-07-09T10:12:34.829Z,2.23
2018-07-09T10:15:39.311Z,2.50
2018-07-09T10:18:44.152Z,2.47
2018-07-09T10:21:48.440Z,2.50
2018-07-09T10:24:52.500Z,2.23
2018-07-09T10:27:56.989Z,1.83
2018-07-09T10:31:01.295Z,1.93
2018-07-09T10:37:16.506Z,1.73
2018-07-09T10:40:21.180Z,1.83
2018-07-09T10:43:25.629Z,1.43
2018-07-09T10:46:30.312Z,1.60
2018-07-09T10:49:34.695Z,1.77
2018-07-09T10:52:39.127Z,1.90
2018-07-09T10:55:43.510Z,1.17
2018-07-09T10:58:47.826Z,1.63
2018-07-09T11:01:52.491Z,1.57
2018-07-09T11:04:57.584Z,1.37
2018-07-09T11:08:01.899Z,2.03
2018-07-09T11:11:06.461Z,1.30
2018-07-09T11:14:10.752Z,1.60
2018-07-09T11:17:15.063Z,1.57
2018-07-09T11:20:20.282Z,1.70
2018-07-09T11:23:24.566Z,1.37
2018-07-09T11:26:29.006Z,1.20
2018-07-09T11:29:33.363Z,1.53
2018-07-09T11:32:37.645Z,1.30
2018-07-09T11:35:42.100Z,1.90
2018-07-09T11:38:46.380Z,1.87
2018-07-09T11:41:51.161Z,2.00
2018-07-09T11:44:55.987Z,1.80
2018-07-09T11:48:00.264Z,1.33
2018-07-09T11:51:04.702Z,1.63
2018-07-09T11:54:08.993Z,1.50
2018-07-09T11:57:13.939Z,1.57
2018-07-09T12:00:18.220Z,1.50
2018-07-09T12:03:22.506Z,1.90
2018-07-09T12:06:26.837Z,2.00
2018-07-09T12:09:31.773Z,2.00
2018-07-09T12:12:36.155Z,1.90
2018-07-09T12:15:40.541Z,1.50
2018-07-09T12:18:45.006Z,1.80
2018-07-09T12:21:49.400Z,1.70
2018-07-09T12:24:54.814Z,1.60
2018-07-09T12:27:59.387Z,1.33
2018-07-09T12:31:03.652Z,1.43
2018-07-09T12:34:07.947Z,1.87
2018-07-09T12:37:12.260Z,1.60
2018-07-09T12:40:16.566Z,1.40
2018-07-09T12:43:21.488Z,1.77
2018-07-09T12:46:25.863Z,1.90
2018-07-09T12:49:30.290Z,1.60
2018-07-09T12:52:34.685Z,1.73
2018-07-09T12:55:39.110Z,1.60
2018-07-09T12:58:43.341Z,1.45
2018-07-09T13:01:47.807Z,1.53
2018-07-09T13:04:52.595Z,1.70
2018-07-09T13:07:57.059Z,2.03
2018-07-09T13:11:01.491Z,1.70
2018-07-09T13:14:05.874Z,1.90
2018-07-09T13:17:10.158Z,1.53
2018-07-09T13:20:14.472Z,1.93
2018-07-09T13:23:18.941Z,2.00
2018-07-09T13:26:23.293Z,1.80
2018-07-09T13:29:27.413Z,2.27
2018-07-09T13:32:32.595Z,1.90
2018-07-09T13:35:37.094Z,1.90
2018-07-09T13:38:41.553Z,1.93
2018-07-09T13:41:46.254Z,2.20
2018-07-09T13:44:52.004Z,2.10
2018-07-09T13:47:56.289Z,2.23
2018-07-09T13:51:01.165Z,1.80
2018-07-09T13:54:05.733Z,1.90
2018-07-09T13:57:16.584Z,1.70
2018-07-09T14:00:21.094Z,1.83
2018-07-09T14:03:25.760Z,2.10
2018-07-09T14:06:30.215Z,2.50
2018-07-09T14:09:36.042Z,1.83
2018-07-09T14:12:40.862Z,2.07
2018-07-09T14:15:45.288Z,1.97
2018-07-09T14:18:49.910Z,2.10
2018-07-09T14:21:54.116Z,1.70
2018-07-09T14:24:58.556Z,2.40
2018-07-09T14:28:02.662Z,1.87
2018-07-09T14:31:08.109Z,1.80
2018-07-09T14:34:12.514Z,2.17
2018-07-09T14:37:17.000Z,1.50
2018-07-09T14:40:21.408Z,1.87
2018-07-09T14:43:25.747Z,2.10
2018-07-09T14:46:30.758Z,2.33
2018-07-09T14:49:35.284Z,2.27
2018-07-09T14:52:39.754Z,2.20
2018-07-09T14:55:44.129Z,1.80
2018-07-09T14:58:48.617Z,2.12
2018-07-09T15:01:52.953Z,2.10
2018-07-09T15:04:57.259Z,2.30
2018-07-09T15:08:01.741Z,2.40
2018-07-09T15:11:06.686Z,2.40
2018-07-09T15:14:11.148Z,2.33
2018-07-09T15:17:15.884Z,1.80
2018-07-09T15:20:20.217Z,1.97
2018-07-09T15:23:38.441Z,2.23
2018-07-09T15:26:42.890Z,1.80
2018-07-09T15:29:49.366Z,2.30
2018-07-09T15:32:54.825Z,1.80
2018-07-09T15:36:07.215Z,2.50
2018-07-09T15:39:11.881Z,2.10
2018-07-09T15:42:16.557Z,2.03
2018-07-09T15:45:23.815Z,2.10
2018-07-09T15:48:29.049Z,2.07
2018-07-09T15:51:33.457Z,2.17
2018-07-09T15:54:41.531Z,1.90
2018-07-09T15:57:46.445Z,2.30
2018-07-09T16:00:50.951Z,2.20
2018-07-09T16:03:55.385Z,2.00
2018-07-09T16:06:59.649Z,2.40
2018-07-09T16:10:04.141Z,1.80
2018-07-09T16:13:08.646Z,2.03
2018-07-09T16:16:13.509Z,2.50
2018-07-09T16:19:18.369Z,2.00
2018-07-09T16:22:23.189Z,2.13
2018-07-09T16:25:28.682Z,2.67
2018-07-09T16:28:33.407Z,2.20
2018-07-09T16:31:38.755Z,2.32
2018-07-09T16:34:43.824Z,2.23
2018-07-09T16:37:48.738Z,2.07
2018-07-09T16:40:53.260Z,2.40
2018-07-09T16:43:57.885Z,2.10
2018-07-09T16:47:02.016Z,2.20
2018-07-09T16:50:06.575Z,2.30
2018-07-09T16:53:11.250Z,2.10
2018-07-09T16:56:16.706Z,2.07
2018-07-09T16:59:21.074Z,2.00
2018-07-09T17:02:25.525Z,2.00
2018-07-09T17:05:30.901Z,2.20
2018-07-09T17:08:35.227Z,1.73
2018-07-09T17:11:39.737Z,2.05
2018-07-09T17:14:44.175Z,2.47
2018-07-09T17:17:48.477Z,2.40
2018-07-09T17:20:52.728Z,2.20
2018-07-09T17:23:57.004Z,2.10
2018-07-09T17:27:01.516Z,2.13
2018-07-09T17:30:05.905Z,2.10
2018-07-09T17:33:10.988Z,2.60
2018-07-09T17:36:15.272Z,2.37
2018-07-09T17:39:19.340Z,2.52
2018-07-09T17:42:24.308Z,2.10
2018-07-09T17:45:29.450Z,1.73
2018-07-09T17:48:33.765Z,1.90
2018-07-09T17:51:38.068Z,3.27
2018-07-09T17:54:42.901Z,2.50
2018-07-09T17:57:47.242Z,2.90
2018-07-09T18:00:52.667Z,2.70
2018-07-09T18:03:56.798Z,2.10
2018-07-09T18:07:01.225Z,2.40
2018-07-09T18:10:05.598Z,2.10
2018-07-09T18:13:10.264Z,2.47
2018-07-09T18:16:14.641Z,2.47
2018-07-09T18:19:18.985Z,2.60
2018-07-09T18:22:23.481Z,2.70
2018-07-09T18:25:28.414Z,2.40
2018-07-09T18:28:32.870Z,2.80
2018-07-09T18:31:37.869Z,2.67
2018-07-09T18:34:42.209Z,2.70
2018-07-09T18:37:46.515Z,2.50
2018-07-09T18:40:51.874Z,2.70
2018-07-09T18:43:56.952Z,2.90
2018-07-09T18:47:01.339Z,2.20
2018-07-09T18:50:05.673Z,2.63
2018-07-09T18:53:10.105Z,2.60
2018-07-09T18:56:14.493Z,2.20
2018-07-09T18:59:18.835Z,2.37
2018-07-09T19:02:23.918Z,2.37
2018-07-09T19:05:42.037Z,2.40
2018-07-09T19:08:46.357Z,2.70
2018-07-09T19:11:50.685Z,2.47
2018-07-09T19:14:54.991Z,2.43
2018-07-09T19:18:17.947Z,2.50
2018-07-09T19:21:41.469Z,2.70
2018-07-09T19:24:44.226Z,2.77
2018-07-09T19:27:47.464Z,2.80
2018-07-09T19:30:50.192Z,2.63
2018-07-09T19:37:01.505Z,3.20
2018-07-09T19:40:05.160Z,4.13
2018-07-09T19:43:07.886Z,3.77
2018-07-09T19:46:11.241Z,4.97
2018-07-09T19:49:13.996Z,5.23
2018-07-09T19:52:16.946Z,4.03
2018-07-09T19:55:19.946Z,4.10
2018-07-09T19:58:22.677Z,5.30
2018-07-09T20:01:26.188Z,3.70
2018-07-09T20:04:28.935Z,4.00
2018-07-09T20:07:31.697Z,3.97
2018-07-09T20:10:39.670Z,4.23
2018-07-09T20:13:51.374Z,3.67
2018-07-09T20:17:00.286Z,4.00
2018-07-09T20:20:03.056Z,5.07
2018-07-09T20:23:05.804Z,4.03
2018-07-09T20:26:08.571Z,4.47
2018-07-09T20:29:11.641Z,3.43
2018-07-09T20:32:14.346Z,4.07
2018-07-09T20:35:17.106Z,4.17
2018-07-09T20:38:20.292Z,3.97
2018-07-09T20:41:23.010Z,3.87
2018-07-09T20:44:27.331Z,4.27
2018-07-09T20:47:30.250Z,3.93
2018-07-09T20:50:32.957Z,3.87
2018-07-09T20:53:35.671Z,4.83
2018-07-09T20:56:38.386Z,4.33
2018-07-09T20:59:41.236Z,3.80
2018-07-09T21:02:44.192Z,3.77
2018-07-09T21:05:46.898Z,4.00
2018-07-09T21:08:49.944Z,4.20
2018-07-09T21:11:52.689Z,4.50
2018-07-09T21:14:55.436Z,4.57
2018-07-09T21:17:58.286Z,4.80
2018-07-09T21:21:00.993Z,5.10
2018-07-09T21:24:04.003Z,5.40
2018-07-09T21:27:07.720Z,5.30
2018-07-09T21:30:10.694Z,4.63
2018-07-09T21:33:13.649Z,4.40
2018-07-09T21:36:16.654Z,4.37
2018-07-09T21:39:19.360Z,5.23
2018-07-09T21:42:22.217Z,4.90
2018-07-09T21:45:24.909Z,4.63
2018-07-09T21:48:29.777Z,5.07
2018-07-09T21:51:31.722Z,4.70
2018-07-09T21:54:35.228Z,3.50
2018-07-09T21:57:38.006Z,4.80
2018-07-09T22:00:41.698Z,3.90
2018-07-09T22:03:44.412Z,4.73
2018-07-09T22:06:47.222Z,4.60
2018-07-09T22:09:50.225Z,4.27
2018-07-09T22:12:53.083Z,4.50
2018-07-09T22:15:55.784Z,4.43
2018-07-09T22:18:58.641Z,4.23
2018-07-09T22:22:01.346Z,4.20
2018-07-09T22:25:04.446Z,4.00
2018-07-09T22:28:07.176Z,4.67
2018-07-09T22:31:11.521Z,4.47
2018-07-09T22:34:15.782Z,4.53
2018-07-09T22:37:21.165Z,4.37
2018-07-09T22:40:26.093Z,4.67
2018-07-09T22:43:47.565Z,4.53
2018-07-09T22:46:51.839Z,4.40
2018-07-09T22:49:58.640Z,5.03
2018-07-09T22:53:02.932Z,4.87
2018-07-09T22:56:11.617Z,4.47
2018-07-09T22:59:15.868Z,4.70
2018-07-09T23:02:20.542Z,4.07
2018-07-09T23:05:24.897Z,4.60
2018-07-09T23:08:29.186Z,4.47
2018-07-09T23:12:26.611Z,4.80
2018-07-09T23:15:48.276Z,5.57
2018-07-09T23:19:09.860Z,5.03
2018-07-09T23:22:19.720Z,4.70
2018-07-09T23:25:22.423Z,5.10
2018-07-09T23:28:25.151Z,4.97
2018-07-09T23:31:27.969Z,5.05
2018-07-09T23:34:30.710Z,4.73
2018-07-09T23:37:33.413Z,5.07
2018-07-09T23:40:36.112Z,5.20
2018-07-09T23:43:38.829Z,4.70
2018-07-09T23:46:41.565Z,5.17
2018-07-09T23:49:44.264Z,4.60
2018-07-09T23:52:46.994Z,5.13
2018-07-09T23:56:01.938Z,4.83
2018-07-09T23:59:49.644Z,4.97
